Time;durP1;ratioP1;P1;durP2;ratioP2;P2;SDS_P1;SDS_P2;PMS_P1;PMS_P2;Temp;Humidity;BMP_temperature;BMP_pressure;BME280_temperature;BME280_humidity;BME280_pressure;Samples;Min_cycle;Max_cycle;Signal;HPM_P1;HPM_P2
2023/05/10 00:02:40;;;;;;;9.33;7.33;;;13.30;99.90;;;;;;2614125;54;20404;-75
2023/05/10 00:05:06;;;;;;;13.83;7.67;;;13.20;99.90;;;;;;2613416;54;20147;-75
2023/05/10 00:10:54;;;;;;;12.00;8.13;;;13.30;99.90;;;;;;2613394;54;20414;-74
2023/05/10 00:16:42;;;;;;;9.93;7.60;;;13.30;99.90;;;;;;2614528;54;20126;-75
2023/05/10 00:22:29;;;;;;;11.73;7.53;;;13.30;99.90;;;;;;2610792;54;20149;-74
2023/05/10 00:28:17;;;;;;;13.73;8.90;;;13.30;99.90;;;;;;2610317;54;20137;-75
2023/05/10 00:34:05;;;;;;;14.87;11.00;;;13.20;99.90;;;;;;2611276;54;20114;-75
2023/05/10 00:39:53;;;;;;;12.83;9.43;;;13.20;99.90;;;;;;2611697;54;20543;-74
2023/05/10 00:45:41;;;;;;;15.00;11.70;;;13.30;99.90;;;;;;2610838;54;20406;-75
2023/05/10 00:51:29;;;;;;;19.73;12.40;;;13.30;99.90;;;;;;2612036;39;20777;-75
2023/05/10 00:57:16;;;;;;;18.20;10.67;;;13.20;99.90;;;;;;2611369;54;20363;-75
2023/05/10 01:07:07;;;;;;;15.10;9.30;;;13.20;99.90;;;;;;2610858;54;20387;-70
2023/05/10 01:12:55;;;;;;;16.50;11.10;;;13.20;99.90;;;;;;2608136;54;20534;-70
2023/05/10 01:18:44;;;;;;;18.40;11.37;;;13.20;99.90;;;;;;2610715;54;20764;-70
2023/05/10 01:24:34;;;;;;;14.03;10.20;;;13.10;99.90;;;;;;2612112;54;20896;-69
2023/05/10 01:36:53;;;;;;;15.23;11.30;;;13.00;99.90;;;;;;2610810;54;21062;-69
2023/05/10 01:48:59;;;;;;;16.47;10.80;;;12.90;99.90;;;;;;2612029;54;20523;-71
2023/05/10 02:01:07;;;;;;;18.57;9.90;;;12.80;99.90;;;;;;2611411;54;20471;-70
2023/05/10 02:10:18;;;;;;;18.10;10.57;;;12.70;99.90;;;;;;2612371;54;20403;-75
2023/05/10 02:16:07;;;;;;;24.83;13.70;;;12.70;99.90;;;;;;2611491;54;23035;-74
2023/05/10 02:21:55;;;;;;;21.73;13.67;;;12.70;99.90;;;;;;2610920;54;20415;-73
2023/05/10 02:27:45;;;;;;;28.90;15.03;;;12.80;99.90;;;;;;2610827;39;20811;-73
2023/05/10 02:33:33;;;;;;;28.30;14.63;;;12.70;99.90;;;;;;2611721;54;20350;-74
2023/05/10 02:39:22;;;;;;;29.63;15.50;;;12.70;99.90;;;;;;2612830;54;20158;-74
2023/05/10 02:45:18;;;;;;;30.67;15.50;;;12.60;99.90;;;;;;2610847;54;20463;-73
2023/05/10 02:51:07;;;;;;;26.63;13.00;;;12.60;99.90;;;;;;2610964;54;20506;-72
2023/05/10 02:57:00;;;;;;;31.43;15.60;;;12.50;99.90;;;;;;2611346;54;20383;-74
2023/05/10 03:02:47;;;;;;;27.90;13.10;;;12.50;99.90;;;;;;2612582;54;20363;-73
2023/05/10 03:05:39;;;;;;;28.20;15.67;;;12.50;99.90;;;;;;2610617;54;20479;-73
2023/05/10 03:08:06;;;;;;;24.77;14.87;;;12.40;99.90;;;;;;2609501;54;20155;-73
2023/05/10 03:26:53;;;;;;;25.13;13.87;;;12.40;99.90;;;;;;2611303;54;20955;-73
2023/05/10 03:32:41;;;;;;;29.40;15.03;;;12.40;99.90;;;;;;2611375;54;20406;-73
2023/05/10 03:38:28;;;;;;;23.93;12.23;;;12.50;99.90;;;;;;2612688;54;20142;-72
2023/05/10 03:44:16;;;;;;;22.60;13.40;;;12.50;99.90;;;;;;2611710;54;20186;-74
2023/05/10 03:50:04;;;;;;;30.10;14.80;;;12.40;99.90;;;;;;2609119;39;20201;-74
2023/05/10 03:55:53;;;;;;;28.57;16.83;;;12.60;99.90;;;;;;2608680;54;20395;-73
2023/05/10 04:01:41;;;;;;;37.07;17.70;;;12.60;99.90;;;;;;2606663;54;20754;-73
2023/05/10 04:10:54;;;;;;;39.03;21.17;;;12.70;99.90;;;;;;2606217;54;20378;-73
2023/05/10 04:16:41;;;;;;;35.53;19.97;;;12.70;99.90;;;;;;2608537;54;21090;-73
2023/05/10 04:22:29;;;;;;;40.70;22.17;;;12.70;99.90;;;;;;2607136;31;20762;-73
2023/05/10 04:28:17;;;;;;;49.57;26.03;;;12.70;99.90;;;;;;2606734;54;20202;-73
2023/05/10 04:34:05;;;;;;;45.83;26.53;;;12.90;99.90;;;;;;2607166;54;20133;-72
2023/05/10 04:39:52;;;;;;;69.60;31.00;;;12.90;99.90;;;;;;2612987;54;20125;-74
2023/05/10 04:45:40;;;;;;;65.00;30.80;;;13.00;99.90;;;;;;2607290;54;20137;-73
2023/05/10 04:51:28;;;;;;;62.53;30.47;;;13.00;99.90;;;;;;2606292;54;20162;-73
2023/05/10 04:57:15;;;;;;;66.13;30.83;;;13.00;99.90;;;;;;2609217;54;20725;-73
2023/05/10 05:03:03;;;;;;;61.47;29.73;;;13.00;99.90;;;;;;2607814;54;20123;-74
2023/05/10 05:06:24;;;;;;;59.00;28.60;;;13.00;99.90;;;;;;2608608;54;20537;-74
2023/05/10 05:08:51;;;;;;;73.57;34.90;;;13.10;99.90;;;;;;2609810;39;20395;-73
2023/05/10 05:14:39;;;;;;;70.00;34.47;;;13.10;99.90;;;;;;2607137;54;20375;-73
2023/05/10 05:20:27;;;;;;;60.07;31.67;;;13.10;99.90;;;;;;2607924;54;20158;-72
2023/05/10 05:26:15;;;;;;;78.17;35.00;;;13.20;99.90;;;;;;2612496;54;20154;-73
2023/05/10 05:32:02;;;;;;;63.43;33.43;;;13.20;99.90;;;;;;2612609;54;20166;-72
2023/05/10 05:37:50;;;;;;;54.53;27.40;;;13.20;99.90;;;;;;2611414;54;20503;-76
2023/05/10 05:43:38;;;;;;;65.20;34.57;;;13.40;99.90;;;;;;2609551;54;20142;-72
2023/05/10 05:49:25;;;;;;;65.20;34.17;;;13.40;99.90;;;;;;2610993;54;20127;-73
2023/05/10 05:55:13;;;;;;;62.53;29.37;;;13.40;99.90;;;;;;2608596;54;20173;-73
2023/05/10 05:58:04;;;;;;;68.23;33.57;;;13.50;99.90;;;;;;2608098;54;20387;-73
2023/05/10 06:00:30;;;;;;;60.87;31.70;;;13.50;99.90;;;;;;2606320;54;20169;-73
2023/05/10 06:06:18;;;;;;;57.00;33.70;;;13.50;99.90;;;;;;2607573;54;20353;-74
2023/05/10 06:12:06;;;;;;;60.53;33.13;;;13.80;99.90;;;;;;2612280;54;20127;-74
2023/05/10 06:17:53;;;;;;;62.07;32.30;;;13.80;99.90;;;;;;2610979;39;20535;-73
2023/05/10 06:23:41;;;;;;;64.80;34.07;;;13.90;99.90;;;;;;2612530;54;20146;-72
2023/05/10 06:29:29;;;;;;;49.67;30.20;;;14.10;99.90;;;;;;2614137;54;20126;-73
2023/05/10 06:35:16;;;;;;;46.80;28.53;;;14.20;99.90;;;;;;2614150;54;20174;-73
2023/05/10 06:41:05;;;;;;;54.57;28.67;;;14.30;99.90;;;;;;2613138;54;20131;-74
2023/05/10 06:46:55;;;;;;;41.60;24.77;;;14.70;99.90;;;;;;2612674;54;20387;-73
2023/05/10 06:52:42;;;;;;;43.57;28.93;;;15.30;99.90;;;;;;2612447;54;20491;-73
2023/05/10 06:58:32;;;;;;;47.57;25.80;;;15.10;99.90;;;;;;2610134;54;20122;-74
2023/05/10 07:04:20;;;;;;;40.57;23.80;;;15.10;99.90;;;;;;2611266;54;20447;-74
2023/05/10 07:13:34;;;;;;;38.73;25.20;;;15.00;99.90;;;;;;2612601;54;20403;-75
2023/05/10 07:19:22;;;;;;;35.50;24.00;;;14.80;99.90;;;;;;2612612;54;20908;-75
2023/05/10 07:25:10;;;;;;;38.90;23.43;;;14.90;99.90;;;;;;2613724;54;20359;-74
2023/05/10 07:30:57;;;;;;;41.60;24.07;;;15.20;99.90;;;;;;2614015;54;20392;-74
2023/05/10 07:36:45;;;;;;;47.53;21.90;;;15.50;99.90;;;;;;2613478;54;20150;-74
2023/05/10 07:42:33;;;;;;;35.87;25.27;;;16.20;99.90;;;;;;2614035;54;20123;-75
2023/05/10 07:48:20;;;;;;;33.27;20.80;;;16.40;99.90;;;;;;2613501;54;20652;-75
2023/05/10 07:54:08;;;;;;;35.77;21.20;;;15.20;99.90;;;;;;2613621;54;20129;-75
2023/05/10 07:59:56;;;;;;;37.00;23.00;;;15.30;99.90;;;;;;2613591;54;20687;-74
2023/05/10 08:05:44;;;;;;;42.90;22.60;;;15.40;99.90;;;;;;2613031;54;20197;-74
2023/05/10 08:11:39;;;;;;;41.80;21.30;;;15.30;99.90;;;;;;2611403;54;20134;-74
2023/05/10 08:17:27;;;;;;;37.40;21.43;;;15.10;99.90;;;;;;2612215;54;20167;-75
2023/05/10 08:23:14;;;;;;;42.03;23.30;;;15.10;99.90;;;;;;2609712;54;20146;-75
2023/05/10 08:29:01;;;;;;;35.57;21.77;;;15.20;99.90;;;;;;2612036;54;20146;-74
2023/05/10 08:34:48;;;;;;;37.50;24.47;;;15.10;99.90;;;;;;2610886;54;20335;-76
2023/05/10 08:40:41;;;;;;;28.60;17.87;;;15.50;99.90;;;;;;2610340;54;20137;-74
2023/05/10 08:46:33;;;;;;;32.13;16.03;;;15.30;99.90;;;;;;2611285;54;20471;-74
2023/05/10 08:52:23;;;;;;;29.97;17.40;;;14.90;99.90;;;;;;2611924;54;20562;-76
2023/05/10 08:58:11;;;;;;;25.73;17.10;;;14.90;99.90;;;;;;2612263;54;20419;-75
2023/05/10 09:03:59;;;;;;;33.73;19.60;;;15.40;99.90;;;;;;2614018;39;20572;-75
2023/05/10 09:20:12;;;;;;;28.57;20.30;;;16.10;99.90;;;;;;2609442;54;20418;-74
2023/05/10 09:26:05;;;;;;;26.20;18.00;;;15.80;99.90;;;;;;2611449;54;20173;-75
2023/05/10 09:31:56;;;;;;;20.70;14.87;;;16.10;99.90;;;;;;2611230;54;20868;-75
2023/05/10 09:37:48;;;;;;;26.50;18.00;;;16.10;99.90;;;;;;2611386;54;20387;-75
2023/05/10 09:43:38;;;;;;;31.03;16.17;;;16.80;99.90;;;;;;2612865;54;20383;-74
2023/05/10 09:46:41;;;;;;;21.53;14.80;;;17.80;99.90;;;;;;2612574;54;20419;-74
2023/05/10 09:49:06;;;;;;;20.50;16.20;;;18.20;99.90;;;;;;2612854;54;20406;-75
2023/05/10 09:54:54;;;;;;;25.17;16.93;;;18.30;99.90;;;;;;2612726;54;20156;-75
2023/05/10 10:00:44;;;;;;;26.23;18.03;;;17.10;99.90;;;;;;2613647;39;20766;-75
2023/05/10 10:06:39;;;;;;;23.87;17.50;;;17.00;99.90;;;;;;2611690;39;22036;-74
2023/05/10 10:12:27;;;;;;;22.57;16.80;;;16.60;99.90;;;;;;2610082;54;20538;-75
2023/05/10 10:18:15;;;;;;;27.10;19.30;;;16.50;99.90;;;;;;2613332;54;20363;-76
2023/05/10 10:24:05;;;;;;;28.33;18.47;;;16.70;99.90;;;;;;2613988;39;20537;-75
2023/05/10 10:36:19;;;;;;;18.03;14.67;;;16.80;99.90;;;;;;2614166;54;20367;-74
2023/05/10 10:42:07;;;;;;;26.43;21.43;;;17.20;99.90;;;;;;2614891;54;20367;-75
2023/05/10 10:48:20;;;;;;;22.93;19.00;;;17.10;99.90;;;;;;2613319;54;20187;-73
2023/05/10 10:54:11;;;;;;;20.60;16.77;;;16.90;99.90;;;;;;2614143;54;20446;-74
2023/05/10 11:00:22;;;;;;;20.33;17.10;;;16.70;99.90;;;;;;2614444;54;20439;-75
2023/05/10 11:06:10;;;;;;;20.47;17.80;;;16.20;99.90;;;;;;2612581;54;20407;-75
2023/05/10 11:27:50;;;;;;;19.20;16.87;;;17.20;99.90;;;;;;2613940;46;20474;-75
2023/05/10 11:33:45;;;;;;;21.00;16.27;;;17.30;99.90;;;;;;2613849;54;20243;-74
2023/05/10 11:39:33;;;;;;;17.20;15.00;;;18.00;99.90;;;;;;2611240;47;20969;-73
2023/05/10 11:45:24;;;;;;;15.70;13.77;;;16.50;99.90;;;;;;2613349;46;20383;-74
2023/05/10 11:51:11;;;;;;;21.17;16.53;;;16.70;99.90;;;;;;2614148;46;20499;-73
2023/05/10 11:57:00;;;;;;;17.97;14.30;;;16.70;99.90;;;;;;2614022;54;20210;-75
2023/05/10 12:02:48;;;;;;;18.70;14.50;;;16.40;99.90;;;;;;2613229;54;20456;-74
2023/05/10 12:08:35;;;;;;;20.07;16.30;;;16.20;99.90;;;;;;2612709;54;20378;-74
2023/05/10 12:14:24;;;;;;;22.07;15.57;;;16.40;99.90;;;;;;2613431;54;20122;-74
2023/05/10 12:20:16;;;;;;;20.37;16.30;;;16.60;99.90;;;;;;2613485;54;20944;-73
2023/05/10 12:26:04;;;;;;;18.30;16.23;;;16.50;99.90;;;;;;2610865;54;20426;-75
2023/05/10 12:31:59;;;;;;;20.77;16.80;;;17.70;99.90;;;;;;2613360;54;20387;-73
2023/05/10 12:37:47;;;;;;;17.13;15.20;;;16.90;99.90;;;;;;2613396;54;20363;-73
2023/05/10 12:43:36;;;;;;;15.73;14.17;;;18.10;99.90;;;;;;2611890;54;20479;-74
2023/05/10 12:49:23;;;;;;;17.97;16.07;;;17.60;99.90;;;;;;2612348;39;20851;-74
2023/05/10 12:55:11;;;;;;;15.07;13.53;;;18.40;99.90;;;;;;2607532;54;20794;-73
2023/05/10 13:00:59;;;;;;;11.03;10.10;;;18.20;99.90;;;;;;2608557;54;20166;-73
2023/05/10 13:06:47;;;;;;;12.67;11.50;;;18.40;99.90;;;;;;2612293;54;20492;-75
2023/05/10 13:15:57;;;;;;;11.27;10.43;;;18.40;99.90;;;;;;2612975;46;20378;-74
2023/05/10 13:21:44;;;;;;;11.90;11.00;;;18.70;99.90;;;;;;2613604;54;20133;-75
2023/05/10 13:27:32;;;;;;;12.83;11.73;;;19.30;99.90;;;;;;2612297;54;20162;-75
2023/05/10 13:33:20;;;;;;;11.13;10.23;;;19.10;99.90;;;;;;2613814;54;20223;-74
2023/05/10 13:39:08;;;;;;;9.97;9.23;;;19.40;99.90;;;;;;2614551;54;20134;-74
2023/05/10 13:44:56;;;;;;;10.90;10.20;;;18.80;99.90;;;;;;2612875;54;20422;-74
2023/05/10 13:50:44;;;;;;;11.27;10.37;;;19.60;98.10;;;;;;2613677;54;20154;-73
2023/05/10 13:56:31;;;;;;;11.30;10.50;;;19.20;93.00;;;;;;2613246;54;20247;-74
2023/05/10 14:02:19;;;;;;;11.13;10.50;;;20.10;81.30;;;;;;2614249;54;20134;-74
2023/05/10 14:08:09;;;;;;;12.23;11.43;;;20.90;68.70;;;;;;2612378;54;20371;-74
2023/05/10 14:11:28;;;;;;;11.50;10.60;;;20.50;66.90;;;;;;2609716;54;20450;-74
2023/05/10 14:13:54;;;;;;;11.60;10.80;;;20.30;75.90;;;;;;2612499;54;20427;-74
2023/05/10 14:19:41;;;;;;;11.67;10.83;;;20.10;85.10;;;;;;2611846;54;20219;-74
2023/05/10 14:25:29;;;;;;;13.07;12.17;;;20.50;62.30;;;;;;2611352;54;20224;-74
2023/05/10 14:31:19;;;;;;;13.17;12.37;;;19.60;57.00;;;;;;2612409;54;20777;-74
2023/05/10 14:37:06;;;;;;;12.50;11.60;;;19.80;73.10;;;;;;2612269;54;20410;-74
2023/05/10 14:42:54;;;;;;;12.57;11.67;;;19.80;68.10;;;;;;2614443;54;20151;-74
2023/05/10 14:48:42;;;;;;;13.00;11.80;;;19.00;70.40;;;;;;2614019;54;20379;-73
2023/05/10 14:54:29;;;;;;;12.57;11.60;;;20.50;57.30;;;;;;2611311;39;20543;-73
2023/05/10 15:00:19;;;;;;;11.80;11.13;;;19.90;57.60;;;;;;2612946;54;20130;-74
2023/05/10 15:06:08;;;;;;;12.53;11.83;;;19.80;54.70;;;;;;2612998;54;20399;-74
2023/05/10 15:22:21;;;;;;;15.10;14.20;;;19.80;53.00;;;;;;2609043;39;20906;-74
2023/05/10 15:25:06;;;;;;;16.30;15.00;;;20.40;54.30;;;;;;2609185;54;20435;-74
2023/05/10 15:27:32;;;;;;;16.00;14.80;;;20.00;60.20;;;;;;2609118;39;20869;-74
2023/05/10 15:33:19;;;;;;;15.50;14.47;;;20.70;56.30;;;;;;2609646;54;20122;-73
2023/05/10 15:39:06;;;;;;;15.50;14.40;;;20.00;65.80;;;;;;2609380;54;20246;-73
2023/05/10 15:42:09;;;;;;;15.40;14.40;;;19.40;77.40;;;;;;2607872;54;20888;-74
2023/05/10 15:44:35;;;;;;;15.10;14.10;;;19.10;82.20;;;;;;2610826;54;20696;-75
2023/05/10 15:50:22;;;;;;;14.87;13.73;;;18.40;89.40;;;;;;2610961;54;20142;-74
2023/05/10 15:56:10;;;;;;;15.63;14.50;;;18.50;97.90;;;;;;2612152;54;20146;-73
2023/05/10 16:01:58;;;;;;;15.87;14.87;;;18.60;99.00;;;;;;2613358;54;20487;-74
2023/05/10 16:07:46;;;;;;;17.40;16.00;;;18.10;99.90;;;;;;2612418;31;20716;-74
2023/05/10 16:16:59;;;;;;;15.10;14.10;;;18.10;99.90;;;;;;2611412;54;20484;-73
2023/05/10 16:22:46;;;;;;;16.80;15.40;;;17.90;99.90;;;;;;2612132;54;20395;-74
2023/05/10 16:28:34;;;;;;;16.37;14.97;;;17.70;99.90;;;;;;2610937;54;20126;-74
2023/05/10 16:34:23;;;;;;;16.97;15.77;;;17.60;99.90;;;;;;2611184;54;20165;-74
2023/05/10 16:40:10;;;;;;;16.60;15.30;;;17.40;99.90;;;;;;2612309;39;20778;-73
2023/05/10 16:45:59;;;;;;;16.40;14.70;;;17.10;99.90;;;;;;2607264;54;20667;-73
2023/05/10 16:51:47;;;;;;;16.07;14.47;;;16.30;99.90;;;;;;2606754;39;20785;-73
2023/05/10 16:57:34;;;;;;;14.70;13.20;;;16.10;99.90;;;;;;2603199;54;20118;-73
2023/05/10 17:03:22;;;;;;;15.70;10.60;;;15.80;99.90;;;;;;2609602;54;20130;-74
2023/05/10 17:09:10;;;;;;;11.00;9.70;;;14.90;99.90;;;;;;2613533;54;20147;-73
2023/05/10 17:12:28;;;;;;;16.07;11.27;;;14.80;99.90;;;;;;2613235;54;20398;-73
2023/05/10 17:14:54;;;;;;;38.90;35.37;;;14.70;99.90;;;;;;2610344;54;20399;-73
2023/05/10 17:20:43;;;;;;;21.83;14.17;;;14.40;99.90;;;;;;2607877;54;20126;-73
2023/05/10 17:26:31;;;;;;;16.97;14.90;;;14.20;99.90;;;;;;2604351;54;20391;-73
2023/05/10 17:32:19;;;;;;;15.43;13.80;;;14.30;99.90;;;;;;2612615;54;20150;-73
2023/05/10 17:38:06;;;;;;;15.73;9.73;;;14.20;99.90;;;;;;2611506;54;20174;-74
2023/05/10 17:43:54;;;;;;;10.20;8.50;;;14.10;99.90;;;;;;2614143;46;20146;-74
2023/05/10 17:49:42;;;;;;;10.70;8.00;;;14.00;99.90;;;;;;2612626;54;20134;-73
2023/05/10 17:55:30;;;;;;;9.10;8.00;;;14.10;99.90;;;;;;2613466;54;20233;-74
2023/05/10 18:01:17;;;;;;;11.53;7.50;;;14.00;99.90;;;;;;2611744;54;20166;-73
2023/05/10 18:07:06;;;;;;;11.40;9.30;;;13.90;99.90;;;;;;2613418;54;20118;-74
2023/05/10 18:16:57;;;;;;;11.47;9.13;;;14.00;99.90;;;;;;2613910;54;20369;-73
2023/05/10 18:22:45;;;;;;;9.90;8.80;;;14.10;99.90;;;;;;2612989;54;20419;-74
2023/05/10 18:28:33;;;;;;;10.07;8.63;;;13.90;99.90;;;;;;2613288;54;20122;-73
2023/05/10 18:34:20;;;;;;;7.47;6.60;;;13.80;99.90;;;;;;2611651;39;20674;-74
2023/05/10 18:40:09;;;;;;;10.80;6.83;;;13.80;99.90;;;;;;2613564;54;20640;-75
2023/05/10 18:45:57;;;;;;;8.40;5.83;;;13.80;99.90;;;;;;2613296;54;20342;-75
2023/05/10 18:51:46;;;;;;;9.90;5.90;;;13.70;99.90;;;;;;2614230;54;20153;-74
2023/05/10 18:57:39;;;;;;;7.13;6.17;;;13.80;99.90;;;;;;2613418;54;20418;-75
2023/05/10 19:03:29;;;;;;;7.37;5.70;;;13.80;99.90;;;;;;2612112;46;20414;-75
2023/05/10 19:09:18;;;;;;;7.57;6.30;;;13.80;99.90;;;;;;2610547;54;20394;-75
2023/05/10 19:12:28;;;;;;;12.53;7.27;;;13.70;99.90;;;;;;2612574;51;20412;-74
2023/05/10 19:14:54;;;;;;;8.83;7.80;;;13.70;99.90;;;;;;2614222;54;20429;-74
2023/05/10 19:20:42;;;;;;;14.90;10.20;;;13.70;99.90;;;;;;2612217;54;20125;-75
2023/05/10 19:26:30;;;;;;;14.10;9.90;;;13.70;99.90;;;;;;2610104;54;20142;-73
2023/05/10 19:32:18;;;;;;;14.77;11.20;;;13.70;99.90;;;;;;2603329;39;20631;-74
2023/05/10 19:38:05;;;;;;;17.00;11.23;;;13.70;99.90;;;;;;2609304;54;20147;-75
2023/05/10 19:43:53;;;;;;;16.70;12.00;;;13.50;99.90;;;;;;2607103;54;20808;-74
2023/05/10 19:49:41;;;;;;;17.37;13.13;;;13.50;99.90;;;;;;2604412;39;20566;-75
2023/05/10 19:55:30;;;;;;;15.67;13.77;;;13.40;99.90;;;;;;2606822;54;20143;-74
2023/05/10 20:01:18;;;;;;;18.33;13.63;;;13.40;99.90;;;;;;2606614;54;20371;-75
2023/05/10 20:07:06;;;;;;;22.13;13.70;;;13.40;99.90;;;;;;2605946;54;20760;-74
2023/05/10 20:16:57;;;;;;;15.23;12.87;;;13.40;99.90;;;;;;2610981;54;20499;-74
2023/05/10 20:22:46;;;;;;;17.23;14.53;;;13.60;99.90;;;;;;2609246;54;20371;-75
2023/05/10 20:28:34;;;;;;;19.70;15.60;;;13.50;99.90;;;;;;2610239;54;20375;-74
2023/05/10 20:34:21;;;;;;;19.60;15.80;;;13.30;99.90;;;;;;2608991;46;20403;-74
2023/05/10 20:40:10;;;;;;;21.90;15.00;;;13.20;99.90;;;;;;2609012;54;20150;-74
2023/05/10 20:46:03;;;;;;;22.20;14.97;;;13.20;99.90;;;;;;2603817;39;21220;-74
2023/05/10 20:51:51;;;;;;;20.10;16.53;;;13.20;99.90;;;;;;2605768;54;21412;-75
2023/05/10 20:57:39;;;;;;;26.03;17.30;;;13.20;99.90;;;;;;2606993;54;20363;-74
2023/05/10 21:03:27;;;;;;;25.47;18.00;;;13.10;99.90;;;;;;2604409;54;20190;-74
2023/05/10 21:09:16;;;;;;;30.80;19.07;;;13.00;99.90;;;;;;2607065;54;21068;-73
2023/05/10 21:15:13;;;;;;;28.00;18.63;;;13.00;99.90;;;;;;2605902;54;20378;-74
2023/05/10 21:21:00;;;;;;;27.07;18.77;;;12.80;99.90;;;;;;2604696;54;20743;-74
2023/05/10 21:26:47;;;;;;;21.27;16.37;;;12.70;99.90;;;;;;2608640;54;20160;-74
2023/05/10 21:32:35;;;;;;;25.43;18.10;;;12.70;99.90;;;;;;2609148;54;20139;-73
2023/05/10 21:38:22;;;;;;;25.30;17.70;;;12.60;99.90;;;;;;2609769;54;20412;-73
2023/05/10 21:44:10;;;;;;;28.20;18.00;;;12.70;99.90;;;;;;2611999;46;20149;-74
2023/05/10 21:49:57;;;;;;;25.73;17.23;;;12.70;99.90;;;;;;2610015;54;20965;-73
2023/05/10 21:55:44;;;;;;;24.77;17.00;;;12.70;99.90;;;;;;2609080;54;20184;-74
2023/05/10 22:01:32;;;;;;;27.13;16.10;;;12.70;99.90;;;;;;2611266;54;20692;-73
2023/05/10 22:07:20;;;;;;;25.47;17.80;;;12.60;99.90;;;;;;2610982;54;20165;-73
2023/05/10 22:17:01;;;;;;;26.43;17.27;;;12.60;99.90;;;;;;2607836;54;20427;-74
2023/05/10 22:22:48;;;;;;;21.17;16.33;;;12.50;99.90;;;;;;2609818;54;20504;-74
2023/05/10 22:28:36;;;;;;;23.27;17.40;;;12.80;99.90;;;;;;2610646;54;20242;-74
2023/05/10 22:34:24;;;;;;;25.77;18.27;;;12.70;99.90;;;;;;2610836;54;20138;-74
2023/05/10 22:40:12;;;;;;;25.20;18.10;;;12.70;99.90;;;;;;2612026;54;20735;-73
2023/05/10 22:45:59;;;;;;;27.00;19.20;;;12.70;99.90;;;;;;2610313;54;20118;-75
2023/05/10 22:51:47;;;;;;;28.47;20.03;;;12.70;99.90;;;;;;2608972;54;20154;-74
2023/05/10 22:57:35;;;;;;;30.73;19.40;;;12.70;99.90;;;;;;2607929;54;20390;-73
2023/05/10 23:03:24;;;;;;;27.63;20.23;;;12.60;99.90;;;;;;2607866;54;20466;-74
2023/05/10 23:09:12;;;;;;;29.30;20.90;;;12.60;99.90;;;;;;2609258;54;20356;-75
2023/05/10 23:12:30;;;;;;;30.03;20.70;;;12.60;99.90;;;;;;2607621;54;20419;-74
2023/05/10 23:14:56;;;;;;;32.57;21.10;;;12.60;99.90;;;;;;2607029;54;20282;-74
2023/05/10 23:20:44;;;;;;;32.30;23.07;;;12.90;99.90;;;;;;2606864;54;20231;-74
2023/05/10 23:26:32;;;;;;;40.23;24.83;;;12.80;99.90;;;;;;2614475;54;20383;-74
2023/05/10 23:32:20;;;;;;;35.97;23.10;;;12.60;99.90;;;;;;2612048;54;20131;-74
2023/05/10 23:38:08;;;;;;;41.27;25.80;;;12.70;99.90;;;;;;2611642;54;20355;-74
2023/05/10 23:43:56;;;;;;;36.57;25.50;;;12.50;99.90;;;;;;2609370;54;20258;-73
2023/05/10 23:49:44;;;;;;;40.63;27.20;;;12.40;99.90;;;;;;2609212;54;20153;-74
2023/05/10 23:55:32;;;;;;;47.33;27.83;;;12.40;99.90;;;;;;2607382;54;20130;-74
